sensor_id;sensor_type;location;lat;lon;timestamp;P1;durP1;ratioP1;P2;durP2;ratioP2
16837;SDS011;19510;54.486;9.046;2022-12-07T07:03:35;3.27;;;1.00;;
16837;SDS011;19510;54.486;9.046;2022-12-07T07:06:01;2.83;;;1.10;;
16837;SDS011;19510;54.486;9.046;2022-12-07T07:08:27;5.10;;;1.43;;
16837;SDS011;19510;54.486;9.046;2022-12-07T07:10:52;2.20;;;0.83;;
16837;SDS011;19510;54.486;9.046;2022-12-07T07:13:18;4.90;;;1.10;;
16837;SDS011;19510;54.486;9.046;2022-12-07T07:15:44;5.33;;;1.03;;
16837;SDS011;19510;54.486;9.046;2022-12-07T07:18:10;4.03;;;0.90;;
16837;SDS011;19510;54.486;9.046;2022-12-07T07:20:36;4.03;;;1.17;;
16837;SDS011;19510;54.486;9.046;2022-12-07T07:23:03;3.63;;;1.33;;
16837;SDS011;19510;54.486;9.046;2022-12-07T07:25:29;8.17;;;1.83;;
16837;SDS011;19510;54.486;9.046;2022-12-07T07:27:55;7.30;;;2.00;;
16837;SDS011;19510;54.486;9.046;2022-12-07T07:30:21;8.83;;;1.40;;
16837;SDS011;19510;54.486;9.046;2022-12-07T07:32:49;6.80;;;1.27;;
16837;SDS011;19510;54.486;9.046;2022-12-07T07:35:18;3.17;;;1.10;;
16837;SDS011;19510;54.486;9.046;2022-12-07T07:37:50;4.23;;;1.50;;
16837;SDS011;19510;54.486;9.046;2022-12-07T07:40:16;2.77;;;1.33;;
16837;SDS011;19510;54.486;9.046;2022-12-07T07:42:42;7.87;;;1.33;;
16837;SDS011;19510;54.486;9.046;2022-12-07T07:45:07;4.03;;;1.10;;
16837;SDS011;19510;54.486;9.046;2022-12-07T07:47:36;6.57;;;1.37;;
16837;SDS011;19510;54.486;9.046;2022-12-07T07:50:04;4.80;;;1.47;;
16837;SDS011;19510;54.486;9.046;2022-12-07T07:52:31;3.07;;;1.20;;
16837;SDS011;19510;54.486;9.046;2022-12-07T07:54:57;2.70;;;1.03;;
16837;SDS011;19510;54.486;9.046;2022-12-07T07:57:22;5.13;;;1.27;;
16837;SDS011;19510;54.486;9.046;2022-12-07T07:59:48;2.43;;;0.97;;
16837;SDS011;19510;54.486;9.046;2022-12-07T08:02:17;4.30;;;1.37;;
16837;SDS011;19510;54.486;9.046;2022-12-07T08:04:44;7.90;;;1.23;;
16837;SDS011;19510;54.486;9.046;2022-12-07T08:07:11;5.43;;;1.17;;
16837;SDS011;19510;54.486;9.046;2022-12-07T08:09:38;8.43;;;1.60;;
16837;SDS011;19510;54.486;9.046;2022-12-07T08:12:04;4.57;;;1.57;;
16837;SDS011;19510;54.486;9.046;2022-12-07T08:14:30;5.87;;;1.60;;
16837;SDS011;19510;54.486;9.046;2022-12-07T08:16:56;5.43;;;1.20;;
16837;SDS011;19510;54.486;9.046;2022-12-07T08:19:22;2.93;;;1.00;;
16837;SDS011;19510;54.486;9.046;2022-12-07T08:21:48;6.67;;;1.33;;
16837;SDS011;19510;54.486;9.046;2022-12-07T08:24:14;3.20;;;0.87;;
16837;SDS011;19510;54.486;9.046;2022-12-07T08:26:40;4.93;;;1.30;;
16837;SDS011;19510;54.486;9.046;2022-12-07T08:29:06;8.73;;;2.03;;
16837;SDS011;19510;54.486;9.046;2022-12-07T08:31:31;10.63;;;3.13;;
16837;SDS011;19510;54.486;9.046;2022-12-07T08:33:57;5.70;;;2.60;;
16837;SDS011;19510;54.486;9.046;2022-12-07T08:36:23;6.67;;;2.23;;
16837;SDS011;19510;54.486;9.046;2022-12-07T08:38:49;3.50;;;1.40;;
16837;SDS011;19510;54.486;9.046;2022-12-07T08:41:15;3.27;;;1.90;;
16837;SDS011;19510;54.486;9.046;2022-12-07T08:43:41;4.97;;;1.63;;
16837;SDS011;19510;54.486;9.046;2022-12-07T08:48:46;3.50;;;1.40;;
16837;SDS011;19510;54.486;9.046;2022-12-07T08:51:21;5.63;;;1.73;;
16837;SDS011;19510;54.486;9.046;2022-12-07T08:53:48;4.73;;;2.00;;
16837;SDS011;19510;54.486;9.046;2022-12-07T08:56:16;4.63;;;1.03;;
16837;SDS011;19510;54.486;9.046;2022-12-07T08:58:41;5.47;;;1.13;;
16837;SDS011;19510;54.486;9.046;2022-12-07T09:01:10;5.73;;;1.13;;
16837;SDS011;19510;54.486;9.046;2022-12-07T09:03:35;4.93;;;1.10;;
16837;SDS011;19510;54.486;9.046;2022-12-07T09:06:01;3.03;;;1.10;;
16837;SDS011;19510;54.486;9.046;2022-12-07T09:08:29;3.57;;;1.33;;
16837;SDS011;19510;54.486;9.046;2022-12-07T09:10:59;3.43;;;1.03;;
16837;SDS011;19510;54.486;9.046;2022-12-07T09:13:24;9.27;;;1.47;;
16837;SDS011;19510;54.486;9.046;2022-12-07T09:15:50;5.83;;;1.20;;
16837;SDS011;19510;54.486;9.046;2022-12-07T09:18:16;4.57;;;1.00;;
16837;SDS011;19510;54.486;9.046;2022-12-07T09:20:41;3.63;;;0.97;;
16837;SDS011;19510;54.486;9.046;2022-12-07T09:23:07;4.17;;;0.90;;
16837;SDS011;19510;54.486;9.046;2022-12-07T09:25:33;9.67;;;1.30;;
16837;SDS011;19510;54.486;9.046;2022-12-07T09:28:08;4.77;;;0.93;;
16837;SDS011;19510;54.486;9.046;2022-12-07T09:30:47;2.23;;;1.00;;
16837;SDS011;19510;54.486;9.046;2022-12-07T09:33:13;4.90;;;1.00;;
16837;SDS011;19510;54.486;9.046;2022-12-07T09:35:43;4.20;;;1.47;;
16837;SDS011;19510;54.486;9.046;2022-12-07T09:38:12;1.83;;;0.90;;
16837;SDS011;19510;54.486;9.046;2022-12-07T09:40:38;7.10;;;1.70;;
16837;SDS011;19510;54.486;9.046;2022-12-07T09:43:05;3.83;;;1.00;;
16837;SDS011;19510;54.486;9.046;2022-12-07T09:45:38;5.93;;;1.90;;
16837;SDS011;19510;54.486;9.046;2022-12-07T09:48:04;4.63;;;1.23;;
16837;SDS011;19510;54.486;9.046;2022-12-07T09:50:31;7.03;;;1.30;;
16837;SDS011;19510;54.486;9.046;2022-12-07T09:53:07;3.97;;;1.50;;
16837;SDS011;19510;54.486;9.046;2022-12-07T09:55:37;1.60;;;1.10;;
16837;SDS011;19510;54.486;9.046;2022-12-07T09:58:05;6.33;;;1.63;;
16837;SDS011;19510;54.486;9.046;2022-12-07T10:00:31;11.67;;;1.60;;
16837;SDS011;19510;54.486;9.046;2022-12-07T10:03:00;2.80;;;0.90;;
16837;SDS011;19510;54.486;9.046;2022-12-07T10:05:29;4.63;;;2.00;;
16837;SDS011;19510;54.486;9.046;2022-12-07T10:07:59;8.03;;;2.10;;
16837;SDS011;19510;54.486;9.046;2022-12-07T10:10:34;3.20;;;1.60;;
16837;SDS011;19510;54.486;9.046;2022-12-07T10:16:04;2.97;;;1.60;;
16837;SDS011;19510;54.486;9.046;2022-12-07T10:21:06;3.77;;;1.50;;
16837;SDS011;19510;54.486;9.046;2022-12-07T10:23:38;6.90;;;1.00;;
16837;SDS011;19510;54.486;9.046;2022-12-07T10:28:49;3.00;;;1.20;;
16837;SDS011;19510;54.486;9.046;2022-12-07T10:31:16;3.67;;;1.17;;
16837;SDS011;19510;54.486;9.046;2022-12-07T10:33:49;2.30;;;1.13;;
16837;SDS011;19510;54.486;9.046;2022-12-07T10:38:51;2.77;;;1.20;;
16837;SDS011;19510;54.486;9.046;2022-12-07T10:41:27;6.33;;;0.90;;
16837;SDS011;19510;54.486;9.046;2022-12-07T10:43:54;4.00;;;2.30;;
16837;SDS011;19510;54.486;9.046;2022-12-07T10:49:02;5.90;;;0.97;;
16837;SDS011;19510;54.486;9.046;2022-12-07T10:51:34;4.10;;;0.80;;
16837;SDS011;19510;54.486;9.046;2022-12-07T10:57:01;2.83;;;0.70;;
16837;SDS011;19510;54.486;9.046;2022-12-07T11:00:15;2.33;;;1.10;;
16837;SDS011;19510;54.486;9.046;2022-12-07T11:02:54;1.43;;;0.70;;
16837;SDS011;19510;54.486;9.046;2022-12-07T11:08:44;1.80;;;1.00;;
16837;SDS011;19510;54.486;9.046;2022-12-07T11:17:44;5.33;;;0.90;;
16837;SDS011;19510;54.486;9.046;2022-12-07T11:26:09;1.53;;;0.73;;
16837;SDS011;19510;54.486;9.046;2022-12-07T11:37:05;4.40;;;1.10;;
16837;SDS011;19510;54.486;9.046;2022-12-07T11:39:44;8.03;;;1.30;;
16837;SDS011;19510;54.486;9.046;2022-12-07T11:55:44;1.03;;;0.70;;
16837;SDS011;19510;54.486;9.046;2022-12-07T11:58:19;1.50;;;0.70;;
16837;SDS011;19510;54.486;9.046;2022-12-07T12:00:56;1.50;;;0.53;;
16837;SDS011;19510;54.486;9.046;2022-12-07T12:03:51;3.03;;;0.80;;
16837;SDS011;19510;54.486;9.046;2022-12-07T12:06:36;4.27;;;0.60;;
16837;SDS011;19510;54.486;9.046;2022-12-07T12:15:08;1.63;;;1.10;;
16837;SDS011;19510;54.486;9.046;2022-12-07T12:17:49;1.87;;;1.10;;
16837;SDS011;19510;54.486;9.046;2022-12-07T12:23:11;4.67;;;1.17;;
16837;SDS011;19510;54.486;9.046;2022-12-07T12:25:39;2.70;;;0.90;;
16837;SDS011;19510;54.486;9.046;2022-12-07T12:31:08;2.40;;;1.37;;
16837;SDS011;19510;54.486;9.046;2022-12-07T12:33:45;2.90;;;1.00;;
16837;SDS011;19510;54.486;9.046;2022-12-07T12:36:30;16.13;;;1.40;;
16837;SDS011;19510;54.486;9.046;2022-12-07T12:51:59;3.67;;;1.00;;
16837;SDS011;19510;54.486;9.046;2022-12-07T12:54:33;2.20;;;1.03;;
16837;SDS011;19510;54.486;9.046;2022-12-07T12:57:13;3.47;;;1.00;;
16837;SDS011;19510;54.486;9.046;2022-12-07T13:10:36;6.30;;;0.80;;
16837;SDS011;19510;54.486;9.046;2022-12-07T13:28:44;0.87;;;0.70;;
16837;SDS011;19510;54.486;9.046;2022-12-07T13:31:36;1.27;;;0.87;;
16837;SDS011;19510;54.486;9.046;2022-12-07T13:36:56;1.50;;;0.97;;
16837;SDS011;19510;54.486;9.046;2022-12-07T13:39:24;3.37;;;1.00;;
16837;SDS011;19510;54.486;9.046;2022-12-07T13:44:24;1.33;;;0.93;;
16837;SDS011;19510;54.486;9.046;2022-12-07T13:46:57;2.13;;;1.00;;
16837;SDS011;19510;54.486;9.046;2022-12-07T13:49:51;3.37;;;1.53;;
16837;SDS011;19510;54.486;9.046;2022-12-07T13:52:19;3.47;;;2.33;;
16837;SDS011;19510;54.486;9.046;2022-12-07T13:57:24;1.57;;;1.40;;
16837;SDS011;19510;54.486;9.046;2022-12-07T13:59:51;3.53;;;1.43;;
16837;SDS011;19510;54.486;9.046;2022-12-07T14:02:18;3.30;;;1.17;;
16837;SDS011;19510;54.486;9.046;2022-12-07T14:04:48;1.60;;;1.33;;
16837;SDS011;19510;54.486;9.046;2022-12-07T14:09:59;5.83;;;1.87;;
16837;SDS011;19510;54.486;9.046;2022-12-07T14:12:28;3.17;;;1.50;;
16837;SDS011;19510;54.486;9.046;2022-12-07T14:14:58;2.20;;;1.33;;
16837;SDS011;19510;54.486;9.046;2022-12-07T14:17:26;3.13;;;1.80;;
16837;SDS011;19510;54.486;9.046;2022-12-07T14:19:53;1.93;;;1.60;;
16837;SDS011;19510;54.486;9.046;2022-12-07T14:22:38;2.87;;;1.60;;
16837;SDS011;19510;54.486;9.046;2022-12-07T14:27:39;4.13;;;1.70;;
16837;SDS011;19510;54.486;9.046;2022-12-07T14:30:16;2.47;;;1.67;;
16837;SDS011;19510;54.486;9.046;2022-12-07T14:32:43;3.77;;;1.50;;
16837;SDS011;19510;54.486;9.046;2022-12-07T14:35:13;3.17;;;1.53;;
16837;SDS011;19510;54.486;9.046;2022-12-07T14:37:41;3.60;;;1.70;;
16837;SDS011;19510;54.486;9.046;2022-12-07T14:40:11;5.20;;;2.00;;
16837;SDS011;19510;54.486;9.046;2022-12-07T14:42:45;3.23;;;2.43;;
16837;SDS011;19510;54.486;9.046;2022-12-07T14:45:18;3.23;;;1.90;;
16837;SDS011;19510;54.486;9.046;2022-12-07T14:47:46;4.10;;;1.70;;
16837;SDS011;19510;54.486;9.046;2022-12-07T14:50:13;1.70;;;1.30;;
16837;SDS011;19510;54.486;9.046;2022-12-07T14:52:42;3.20;;;1.60;;
16837;SDS011;19510;54.486;9.046;2022-12-07T14:55:14;1.90;;;1.60;;
16837;SDS011;19510;54.486;9.046;2022-12-07T14:57:47;2.90;;;1.93;;
16837;SDS011;19510;54.486;9.046;2022-12-07T15:00:13;1.93;;;1.33;;
16837;SDS011;19510;54.486;9.046;2022-12-07T15:02:40;2.70;;;1.60;;
16837;SDS011;19510;54.486;9.046;2022-12-07T15:05:06;2.03;;;1.50;;
16837;SDS011;19510;54.486;9.046;2022-12-07T15:07:32;2.23;;;1.53;;
16837;SDS011;19510;54.486;9.046;2022-12-07T15:09:58;3.83;;;1.70;;
16837;SDS011;19510;54.486;9.046;2022-12-07T15:12:23;3.60;;;1.83;;
16837;SDS011;19510;54.486;9.046;2022-12-07T15:14:49;6.40;;;1.83;;
16837;SDS011;19510;54.486;9.046;2022-12-07T15:17:15;5.80;;;3.80;;
16837;SDS011;19510;54.486;9.046;2022-12-07T15:19:41;2.97;;;1.53;;
16837;SDS011;19510;54.486;9.046;2022-12-07T15:22:07;5.10;;;1.77;;
16837;SDS011;19510;54.486;9.046;2022-12-07T15:24:37;3.40;;;1.43;;
16837;SDS011;19510;54.486;9.046;2022-12-07T15:27:03;2.17;;;1.23;;
16837;SDS011;19510;54.486;9.046;2022-12-07T15:29:29;3.33;;;1.70;;
16837;SDS011;19510;54.486;9.046;2022-12-07T15:31:55;5.30;;;2.30;;
16837;SDS011;19510;54.486;9.046;2022-12-07T15:34:23;1.90;;;1.37;;
16837;SDS011;19510;54.486;9.046;2022-12-07T15:36:50;1.47;;;1.10;;
16837;SDS011;19510;54.486;9.046;2022-12-07T15:39:15;4.77;;;2.17;;
16837;SDS011;19510;54.486;9.046;2022-12-07T15:41:41;2.10;;;1.30;;
16837;SDS011;19510;54.486;9.046;2022-12-07T15:44:09;3.70;;;1.57;;
16837;SDS011;19510;54.486;9.046;2022-12-07T15:46:55;2.17;;;1.20;;
16837;SDS011;19510;54.486;9.046;2022-12-07T15:49:21;3.20;;;2.20;;
16837;SDS011;19510;54.486;9.046;2022-12-07T15:51:46;2.70;;;1.83;;
16837;SDS011;19510;54.486;9.046;2022-12-07T15:54:13;5.63;;;2.50;;
16837;SDS011;19510;54.486;9.046;2022-12-07T15:56:45;3.40;;;2.20;;
16837;SDS011;19510;54.486;9.046;2022-12-07T15:59:11;2.00;;;1.60;;
16837;SDS011;19510;54.486;9.046;2022-12-07T16:01:37;3.70;;;1.97;;
16837;SDS011;19510;54.486;9.046;2022-12-07T16:04:03;1.57;;;1.23;;
16837;SDS011;19510;54.486;9.046;2022-12-07T16:06:29;1.70;;;1.33;;
16837;SDS011;19510;54.486;9.046;2022-12-07T16:08:54;2.77;;;0.90;;
16837;SDS011;19510;54.486;9.046;2022-12-07T16:11:20;2.93;;;0.90;;
16837;SDS011;19510;54.486;9.046;2022-12-07T16:13:46;3.77;;;1.20;;
16837;SDS011;19510;54.486;9.046;2022-12-07T16:16:13;2.30;;;0.97;;
16837;SDS011;19510;54.486;9.046;2022-12-07T16:18:41;2.00;;;1.10;;
16837;SDS011;19510;54.486;9.046;2022-12-07T16:21:08;1.53;;;0.90;;
16837;SDS011;19510;54.486;9.046;2022-12-07T16:23:33;2.67;;;1.10;;
16837;SDS011;19510;54.486;9.046;2022-12-07T16:26:03;2.63;;;1.00;;
16837;SDS011;19510;54.486;9.046;2022-12-07T16:28:30;2.33;;;0.80;;
16837;SDS011;19510;54.486;9.046;2022-12-07T16:31:00;3.67;;;0.80;;
16837;SDS011;19510;54.486;9.046;2022-12-07T16:33:27;4.87;;;2.33;;
16837;SDS011;19510;54.486;9.046;2022-12-07T16:35:53;5.67;;;2.23;;
16837;SDS011;19510;54.486;9.046;2022-12-07T16:38:18;4.53;;;1.60;;
16837;SDS011;19510;54.486;9.046;2022-12-07T16:40:47;2.30;;;1.63;;
16837;SDS011;19510;54.486;9.046;2022-12-07T16:43:13;2.57;;;1.73;;
16837;SDS011;19510;54.486;9.046;2022-12-07T16:45:39;2.07;;;1.53;;
16837;SDS011;19510;54.486;9.046;2022-12-07T16:48:04;2.63;;;1.57;;
16837;SDS011;19510;54.486;9.046;2022-12-07T16:50:30;1.23;;;1.13;;
16837;SDS011;19510;54.486;9.046;2022-12-07T16:52:58;1.37;;;0.90;;
16837;SDS011;19510;54.486;9.046;2022-12-07T16:55:24;2.97;;;1.20;;
16837;SDS011;19510;54.486;9.046;2022-12-07T16:57:50;5.57;;;1.60;;
16837;SDS011;19510;54.486;9.046;2022-12-07T17:00:15;6.13;;;1.73;;
16837;SDS011;19510;54.486;9.046;2022-12-07T17:02:42;3.03;;;1.30;;
16837;SDS011;19510;54.486;9.046;2022-12-07T17:05:12;2.93;;;1.77;;
16837;SDS011;19510;54.486;9.046;2022-12-07T17:07:38;2.07;;;1.50;;
16837;SDS011;19510;54.486;9.046;2022-12-07T17:10:03;1.60;;;1.30;;
16837;SDS011;19510;54.486;9.046;2022-12-07T17:12:30;4.67;;;1.50;;
16837;SDS011;19510;54.486;9.046;2022-12-07T17:14:55;1.53;;;1.40;;
16837;SDS011;19510;54.486;9.046;2022-12-07T17:17:40;4.33;;;1.80;;
16837;SDS011;19510;54.486;9.046;2022-12-07T17:20:07;2.83;;;1.40;;
16837;SDS011;19510;54.486;9.046;2022-12-07T17:22:34;3.83;;;2.40;;
16837;SDS011;19510;54.486;9.046;2022-12-07T17:25:00;3.30;;;2.00;;
16837;SDS011;19510;54.486;9.046;2022-12-07T17:27:25;5.67;;;2.40;;
16837;SDS011;19510;54.486;9.046;2022-12-07T17:29:51;5.53;;;2.60;;
16837;SDS011;19510;54.486;9.046;2022-12-07T17:32:19;5.83;;;2.63;;
16837;SDS011;19510;54.486;9.046;2022-12-07T17:34:47;5.53;;;2.83;;
16837;SDS011;19510;54.486;9.046;2022-12-07T17:37:13;3.47;;;2.47;;
16837;SDS011;19510;54.486;9.046;2022-12-07T17:39:38;4.03;;;2.10;;
16837;SDS011;19510;54.486;9.046;2022-12-07T17:42:04;5.97;;;1.97;;
16837;SDS011;19510;54.486;9.046;2022-12-07T17:44:49;1.77;;;1.47;;
16837;SDS011;19510;54.486;9.046;2022-12-07T17:47:17;2.23;;;1.90;;
16837;SDS011;19510;54.486;9.046;2022-12-07T17:49:43;2.23;;;1.90;;
16837;SDS011;19510;54.486;9.046;2022-12-07T17:52:11;4.10;;;1.83;;
16837;SDS011;19510;54.486;9.046;2022-12-07T17:54:55;4.10;;;2.23;;
16837;SDS011;19510;54.486;9.046;2022-12-07T17:57:21;4.00;;;2.10;;
16837;SDS011;19510;54.486;9.046;2022-12-07T17:59:49;2.93;;;2.20;;
16837;SDS011;19510;54.486;9.046;2022-12-07T18:02:16;4.43;;;2.23;;
16837;SDS011;19510;54.486;9.046;2022-12-07T18:04:42;4.70;;;2.33;;
16837;SDS011;19510;54.486;9.046;2022-12-07T18:07:09;3.37;;;2.20;;
16837;SDS011;19510;54.486;9.046;2022-12-07T18:09:35;3.60;;;2.10;;
16837;SDS011;19510;54.486;9.046;2022-12-07T18:12:01;4.90;;;2.87;;
16837;SDS011;19510;54.486;9.046;2022-12-07T18:14:27;4.23;;;2.70;;
16837;SDS011;19510;54.486;9.046;2022-12-07T18:16:53;4.03;;;2.20;;
16837;SDS011;19510;54.486;9.046;2022-12-07T18:19:19;2.77;;;2.07;;
16837;SDS011;19510;54.486;9.046;2022-12-07T18:21:45;4.40;;;2.07;;
16837;SDS011;19510;54.486;9.046;2022-12-07T18:24:12;4.17;;;2.10;;
16837;SDS011;19510;54.486;9.046;2022-12-07T18:26:39;4.57;;;2.87;;
16837;SDS011;19510;54.486;9.046;2022-12-07T18:29:06;2.80;;;2.20;;
16837;SDS011;19510;54.486;9.046;2022-12-07T18:31:33;8.43;;;2.20;;
16837;SDS011;19510;54.486;9.046;2022-12-07T18:34:03;3.10;;;2.07;;
16837;SDS011;19510;54.486;9.046;2022-12-07T18:36:32;4.17;;;2.30;;
16837;SDS011;19510;54.486;9.046;2022-12-07T18:38:58;1.87;;;1.70;;
16837;SDS011;19510;54.486;9.046;2022-12-07T18:41:24;2.40;;;1.57;;
16837;SDS011;19510;54.486;9.046;2022-12-07T18:43:49;3.00;;;1.50;;
16837;SDS011;19510;54.486;9.046;2022-12-07T18:46:16;5.10;;;2.13;;
16837;SDS011;19510;54.486;9.046;2022-12-07T18:48:44;2.77;;;1.70;;
16837;SDS011;19510;54.486;9.046;2022-12-07T18:51:14;7.17;;;2.50;;
16837;SDS011;19510;54.486;9.046;2022-12-07T18:53:43;5.97;;;2.77;;
16837;SDS011;19510;54.486;9.046;2022-12-07T18:56:12;5.80;;;2.30;;
16837;SDS011;19510;54.486;9.046;2022-12-07T18:58:40;6.53;;;2.50;;
16837;SDS011;19510;54.486;9.046;2022-12-07T19:01:33;6.50;;;3.17;;
16837;SDS011;19510;54.486;9.046;2022-12-07T19:04:00;6.73;;;2.77;;
16837;SDS011;19510;54.486;9.046;2022-12-07T19:06:26;3.53;;;1.87;;
16837;SDS011;19510;54.486;9.046;2022-12-07T19:08:53;4.03;;;1.73;;
16837;SDS011;19510;54.486;9.046;2022-12-07T19:11:20;4.73;;;1.73;;
16837;SDS011;19510;54.486;9.046;2022-12-07T19:14:05;2.97;;;2.07;;
16837;SDS011;19510;54.486;9.046;2022-12-07T19:16:31;1.67;;;1.47;;
16837;SDS011;19510;54.486;9.046;2022-12-07T19:18:57;3.03;;;1.90;;
16837;SDS011;19510;54.486;9.046;2022-12-07T19:21:22;4.23;;;2.17;;
16837;SDS011;19510;54.486;9.046;2022-12-07T19:23:48;3.87;;;2.00;;
16837;SDS011;19510;54.486;9.046;2022-12-07T19:26:14;3.77;;;1.80;;
16837;SDS011;19510;54.486;9.046;2022-12-07T19:28:43;2.73;;;1.90;;
16837;SDS011;19510;54.486;9.046;2022-12-07T19:31:09;3.20;;;1.73;;
16837;SDS011;19510;54.486;9.046;2022-12-07T19:33:38;2.13;;;1.67;;
16837;SDS011;19510;54.486;9.046;2022-12-07T19:36:04;3.23;;;1.80;;
16837;SDS011;19510;54.486;9.046;2022-12-07T19:38:31;2.03;;;1.67;;
16837;SDS011;19510;54.486;9.046;2022-12-07T19:41:30;1.77;;;1.53;;
16837;SDS011;19510;54.486;9.046;2022-12-07T19:44:03;3.50;;;1.67;;
16837;SDS011;19510;54.486;9.046;2022-12-07T19:46:35;1.90;;;1.50;;
16837;SDS011;19510;54.486;9.046;2022-12-07T19:49:01;2.10;;;1.30;;
16837;SDS011;19510;54.486;9.046;2022-12-07T19:51:28;6.13;;;1.70;;
16837;SDS011;19510;54.486;9.046;2022-12-07T19:54:00;1.53;;;1.43;;
16837;SDS011;19510;54.486;9.046;2022-12-07T19:56:28;1.80;;;1.33;;
16837;SDS011;19510;54.486;9.046;2022-12-07T19:58:57;5.50;;;2.47;;
16837;SDS011;19510;54.486;9.046;2022-12-07T20:01:24;5.27;;;2.37;;
16837;SDS011;19510;54.486;9.046;2022-12-07T20:03:49;4.53;;;2.00;;
16837;SDS011;19510;54.486;9.046;2022-12-07T20:06:18;4.37;;;2.77;;
16837;SDS011;19510;54.486;9.046;2022-12-07T20:08:47;4.10;;;1.60;;
16837;SDS011;19510;54.486;9.046;2022-12-07T20:11:14;2.80;;;1.90;;
16837;SDS011;19510;54.486;9.046;2022-12-07T20:14:00;4.00;;;2.17;;
16837;SDS011;19510;54.486;9.046;2022-12-07T20:16:28;4.37;;;2.03;;
16837;SDS011;19510;54.486;9.046;2022-12-07T20:18:54;2.73;;;1.87;;
16837;SDS011;19510;54.486;9.046;2022-12-07T20:21:22;3.73;;;1.70;;
16837;SDS011;19510;54.486;9.046;2022-12-07T20:23:49;4.83;;;1.80;;
16837;SDS011;19510;54.486;9.046;2022-12-07T20:26:14;7.20;;;1.80;;
16837;SDS011;19510;54.486;9.046;2022-12-07T20:28:41;4.13;;;1.90;;
16837;SDS011;19510;54.486;9.046;2022-12-07T20:31:10;1.87;;;1.47;;
16837;SDS011;19510;54.486;9.046;2022-12-07T20:33:37;1.63;;;1.43;;
16837;SDS011;19510;54.486;9.046;2022-12-07T20:36:03;2.17;;;1.30;;
16837;SDS011;19510;54.486;9.046;2022-12-07T20:38:33;3.47;;;1.57;;
16837;SDS011;19510;54.486;9.046;2022-12-07T20:41:01;4.23;;;1.60;;
16837;SDS011;19510;54.486;9.046;2022-12-07T20:43:28;2.07;;;1.40;;
16837;SDS011;19510;54.486;9.046;2022-12-07T20:45:54;3.53;;;1.40;;
16837;SDS011;19510;54.486;9.046;2022-12-07T20:48:21;2.13;;;1.27;;
16837;SDS011;19510;54.486;9.046;2022-12-07T20:50:47;3.47;;;1.60;;
16837;SDS011;19510;54.486;9.046;2022-12-07T20:53:13;7.00;;;1.50;;
16837;SDS011;19510;54.486;9.046;2022-12-07T20:55:39;2.53;;;1.47;;
16837;SDS011;19510;54.486;9.046;2022-12-07T20:58:05;2.53;;;1.47;;
16837;SDS011;19510;54.486;9.046;2022-12-07T21:00:31;3.23;;;1.23;;
16837;SDS011;19510;54.486;9.046;2022-12-07T21:02:58;3.87;;;1.13;;
16837;SDS011;19510;54.486;9.046;2022-12-07T21:05:24;0.80;;;0.80;;
16837;SDS011;19510;54.486;9.046;2022-12-07T21:07:52;1.20;;;1.10;;
16837;SDS011;19510;54.486;9.046;2022-12-07T21:10:17;2.27;;;1.50;;
16837;SDS011;19510;54.486;9.046;2022-12-07T21:12:43;2.13;;;0.80;;
16837;SDS011;19510;54.486;9.046;2022-12-07T21:15:09;1.47;;;0.87;;
16837;SDS011;19510;54.486;9.046;2022-12-07T21:17:35;1.87;;;1.03;;
16837;SDS011;19510;54.486;9.046;2022-12-07T21:20:00;2.43;;;1.10;;
16837;SDS011;19510;54.486;9.046;2022-12-07T21:22:26;2.37;;;1.10;;
16837;SDS011;19510;54.486;9.046;2022-12-07T21:24:52;3.07;;;1.33;;
16837;SDS011;19510;54.486;9.046;2022-12-07T21:27:17;1.80;;;1.47;;
16837;SDS011;19510;54.486;9.046;2022-12-07T21:29:43;1.93;;;1.53;;
16837;SDS011;19510;54.486;9.046;2022-12-07T21:32:09;2.70;;;1.50;;
16837;SDS011;19510;54.486;9.046;2022-12-07T21:34:35;2.30;;;1.57;;
16837;SDS011;19510;54.486;9.046;2022-12-07T21:37:01;2.17;;;1.40;;
16837;SDS011;19510;54.486;9.046;2022-12-07T21:39:28;1.60;;;1.50;;
16837;SDS011;19510;54.486;9.046;2022-12-07T21:41:57;2.57;;;1.73;;
16837;SDS011;19510;54.486;9.046;2022-12-07T21:44:23;3.83;;;1.70;;
16837;SDS011;19510;54.486;9.046;2022-12-07T21:46:48;1.77;;;1.50;;
16837;SDS011;19510;54.486;9.046;2022-12-07T21:49:14;3.23;;;1.40;;
16837;SDS011;19510;54.486;9.046;2022-12-07T21:51:40;1.83;;;1.50;;
16837;SDS011;19510;54.486;9.046;2022-12-07T21:54:07;2.07;;;1.37;;
16837;SDS011;19510;54.486;9.046;2022-12-07T21:56:36;2.67;;;1.30;;
16837;SDS011;19510;54.486;9.046;2022-12-07T21:59:08;2.80;;;1.53;;
16837;SDS011;19510;54.486;9.046;2022-12-07T22:01:40;3.47;;;1.20;;
16837;SDS011;19510;54.486;9.046;2022-12-07T22:04:15;2.30;;;1.07;;
16837;SDS011;19510;54.486;9.046;2022-12-07T22:06:43;1.53;;;1.40;;
16837;SDS011;19510;54.486;9.046;2022-12-07T22:09:09;2.30;;;1.60;;
16837;SDS011;19510;54.486;9.046;2022-12-07T22:11:36;1.93;;;1.60;;
16837;SDS011;19510;54.486;9.046;2022-12-07T22:14:02;4.83;;;2.00;;
16837;SDS011;19510;54.486;9.046;2022-12-07T22:16:46;2.33;;;1.70;;
16837;SDS011;19510;54.486;9.046;2022-12-07T22:19:12;2.33;;;1.70;;
16837;SDS011;19510;54.486;9.046;2022-12-07T22:21:37;1.97;;;1.60;;
16837;SDS011;19510;54.486;9.046;2022-12-07T22:24:03;2.77;;;1.50;;
16837;SDS011;19510;54.486;9.046;2022-12-07T22:26:32;2.30;;;1.77;;
16837;SDS011;19510;54.486;9.046;2022-12-07T22:28:58;3.00;;;2.27;;
16837;SDS011;19510;54.486;9.046;2022-12-07T22:31:25;3.47;;;2.47;;
16837;SDS011;19510;54.486;9.046;2022-12-07T22:33:50;3.60;;;2.40;;
16837;SDS011;19510;54.486;9.046;2022-12-07T22:36:17;3.07;;;2.40;;
16837;SDS011;19510;54.486;9.046;2022-12-07T22:38:43;3.00;;;2.70;;
16837;SDS011;19510;54.486;9.046;2022-12-07T22:41:11;2.40;;;2.20;;
16837;SDS011;19510;54.486;9.046;2022-12-07T22:43:37;2.37;;;2.10;;
16837;SDS011;19510;54.486;9.046;2022-12-07T22:46:03;2.20;;;2.00;;
16837;SDS011;19510;54.486;9.046;2022-12-07T22:48:32;2.17;;;1.87;;
16837;SDS011;19510;54.486;9.046;2022-12-07T22:50:58;1.93;;;1.67;;
16837;SDS011;19510;54.486;9.046;2022-12-07T22:53:24;3.07;;;2.03;;
16837;SDS011;19510;54.486;9.046;2022-12-07T22:55:50;1.80;;;1.70;;
16837;SDS011;19510;54.486;9.046;2022-12-07T22:58:16;1.53;;;1.43;;
16837;SDS011;19510;54.486;9.046;2022-12-07T23:00:45;1.50;;;1.40;;
16837;SDS011;19510;54.486;9.046;2022-12-07T23:03:12;1.83;;;1.70;;
16837;SDS011;19510;54.486;9.046;2022-12-07T23:05:45;1.43;;;1.33;;
16837;SDS011;19510;54.486;9.046;2022-12-07T23:08:12;2.17;;;1.80;;
16837;SDS011;19510;54.486;9.046;2022-12-07T23:10:42;1.67;;;1.57;;
16837;SDS011;19510;54.486;9.046;2022-12-07T23:13:13;2.00;;;1.70;;
16837;SDS011;19510;54.486;9.046;2022-12-07T23:16:07;2.30;;;1.97;;
16837;SDS011;19510;54.486;9.046;2022-12-07T23:18:38;1.90;;;1.80;;
16837;SDS011;19510;54.486;9.046;2022-12-07T23:21:08;2.53;;;2.23;;
16837;SDS011;19510;54.486;9.046;2022-12-07T23:23:36;2.20;;;2.00;;
16837;SDS011;19510;54.486;9.046;2022-12-07T23:26:05;2.30;;;2.07;;
16837;SDS011;19510;54.486;9.046;2022-12-07T23:28:33;2.70;;;2.50;;
16837;SDS011;19510;54.486;9.046;2022-12-07T23:31:02;2.43;;;2.23;;
16837;SDS011;19510;54.486;9.046;2022-12-07T23:33:32;2.80;;;2.10;;
16837;SDS011;19510;54.486;9.046;2022-12-07T23:36:31;2.97;;;2.23;;
16837;SDS011;19510;54.486;9.046;2022-12-07T23:38:52;2.20;;;2.00;;
16837;SDS011;19510;54.486;9.046;2022-12-07T23:41:22;2.50;;;2.30;;
16837;SDS011;19510;54.486;9.046;2022-12-07T23:43:49;2.30;;;2.10;;
16837;SDS011;19510;54.486;9.046;2022-12-07T23:46:19;2.27;;;2.07;;
16837;SDS011;19510;54.486;9.046;2022-12-07T23:48:50;2.07;;;1.87;;
16837;SDS011;19510;54.486;9.046;2022-12-07T23:51:17;2.60;;;2.40;;
16837;SDS011;19510;54.486;9.046;2022-12-07T23:53:47;2.90;;;2.33;;
16837;SDS011;19510;54.486;9.046;2022-12-07T23:56:15;2.63;;;2.10;;
16837;SDS011;19510;54.486;9.046;2022-12-07T23:58:43;2.50;;;2.30;;
